sensor_id;sensor_type;location;lat;lon;timestamp;pressure;altitude;pressure_sealevel;temperature;humidity
73453;BME280;61687;56.232;43.854;2022-09-09T00:00:32;101088.16;;;7.41;77.75
73453;BME280;61687;56.232;43.854;2022-09-09T00:03:21;101091.72;;;7.33;77.47
73453;BME280;61687;56.232;43.854;2022-09-09T00:06:04;101100.88;;;7.28;77.93
73453;BME280;61687;56.232;43.854;2022-09-09T00:11:52;101098.34;;;7.23;78.16
73453;BME280;61687;56.232;43.854;2022-09-09T00:14:51;101109.91;;;7.20;78.31
73453;BME280;61687;56.232;43.854;2022-09-09T00:18:03;101114.88;;;7.18;78.48
73453;BME280;61687;56.232;43.854;2022-09-09T00:20:47;101122.41;;;7.21;78.28
73453;BME280;61687;56.232;43.854;2022-09-09T00:23:32;101123.06;;;7.18;78.39
73453;BME280;61687;56.232;43.854;2022-09-09T00:26:18;101125.94;;;7.12;78.60
73453;BME280;61687;56.232;43.854;2022-09-09T00:29:00;101126.56;;;7.09;78.56
73453;BME280;61687;56.232;43.854;2022-09-09T00:31:30;101125.94;;;7.12;78.38
73453;BME280;61687;56.232;43.854;2022-09-09T00:36:35;101124.19;;;6.99;78.79
73453;BME280;61687;56.232;43.854;2022-09-09T00:39:03;101133.03;;;6.96;78.71
73453;BME280;61687;56.232;43.854;2022-09-09T00:41:43;101130.31;;;6.96;78.92
73453;BME280;61687;56.232;43.854;2022-09-09T00:46:59;101131.44;;;6.95;79.11
73453;BME280;61687;56.232;43.854;2022-09-09T00:52:39;101140.72;;;6.94;79.20
73453;BME280;61687;56.232;43.854;2022-09-09T00:55:23;101136.72;;;6.91;79.06
73453;BME280;61687;56.232;43.854;2022-09-09T00:57:54;101135.94;;;6.91;78.99
73453;BME280;61687;56.232;43.854;2022-09-09T01:00:24;101145.38;;;6.84;79.15
73453;BME280;61687;56.232;43.854;2022-09-09T01:03:14;101143.28;;;6.81;79.29
73453;BME280;61687;56.232;43.854;2022-09-09T01:05:57;101145.53;;;6.79;79.34
73453;BME280;61687;56.232;43.854;2022-09-09T01:11:20;101145.22;;;6.81;79.22
73453;BME280;61687;56.232;43.854;2022-09-09T01:13:49;101147.13;;;6.80;79.29
73453;BME280;61687;56.232;43.854;2022-09-09T01:16:18;101151.16;;;6.83;79.32
73453;BME280;61687;56.232;43.854;2022-09-09T01:18:48;101154.81;;;6.87;79.37
73453;BME280;61687;56.232;43.854;2022-09-09T01:24:27;101155.13;;;7.03;78.97
73453;BME280;61687;56.232;43.854;2022-09-09T01:27:17;101151.44;;;7.08;78.61
73453;BME280;61687;56.232;43.854;2022-09-09T01:29:45;101159.47;;;7.04;78.66
73453;BME280;61687;56.232;43.854;2022-09-09T01:32:39;101166.38;;;7.01;78.84
73453;BME280;61687;56.232;43.854;2022-09-09T01:37:57;101168.94;;;7.07;78.53
73453;BME280;61687;56.232;43.854;2022-09-09T01:40:24;101163.31;;;7.12;78.28
73453;BME280;61687;56.232;43.854;2022-09-09T01:42:52;101171.16;;;7.13;78.09
73453;BME280;61687;56.232;43.854;2022-09-09T01:45:19;101168.44;;;7.13;78.16
73453;BME280;61687;56.232;43.854;2022-09-09T01:47:46;101166.97;;;7.16;78.04
73453;BME280;61687;56.232;43.854;2022-09-09T01:50:24;101172.28;;;7.12;78.06
73453;BME280;61687;56.232;43.854;2022-09-09T01:52:56;101179.50;;;7.08;78.07
73453;BME280;61687;56.232;43.854;2022-09-09T01:55:37;101175.16;;;6.98;77.87
73453;BME280;61687;56.232;43.854;2022-09-09T02:01:24;101180.78;;;6.84;78.17
73453;BME280;61687;56.232;43.854;2022-09-09T02:03:52;101186.22;;;6.84;78.23
73453;BME280;61687;56.232;43.854;2022-09-09T02:06:30;101183.03;;;6.82;78.28
73453;BME280;61687;56.232;43.854;2022-09-09T02:09:10;101187.81;;;6.77;78.33
73453;BME280;61687;56.232;43.854;2022-09-09T02:11:40;101188.81;;;6.72;78.54
73453;BME280;61687;56.232;43.854;2022-09-09T02:14:27;101182.06;;;6.69;78.88
73453;BME280;61687;56.232;43.854;2022-09-09T02:17:01;101183.19;;;6.68;78.70
73453;BME280;61687;56.232;43.854;2022-09-09T02:19:51;101198.22;;;6.66;78.65
73453;BME280;61687;56.232;43.854;2022-09-09T02:22:32;101198.88;;;6.63;79.04
73453;BME280;61687;56.232;43.854;2022-09-09T02:25:02;101208.63;;;6.64;79.24
73453;BME280;61687;56.232;43.854;2022-09-09T02:27:31;101202.88;;;6.56;79.32
73453;BME280;61687;56.232;43.854;2022-09-09T02:29:59;101208.31;;;6.56;79.11
73453;BME280;61687;56.232;43.854;2022-09-09T02:32:38;101206.72;;;6.55;79.48
73453;BME280;61687;56.232;43.854;2022-09-09T02:35:12;101210.56;;;6.54;79.46
73453;BME280;61687;56.232;43.854;2022-09-09T02:37:42;101214.25;;;6.58;79.42
73453;BME280;61687;56.232;43.854;2022-09-09T02:40:11;101222.91;;;6.61;79.37
73453;BME280;61687;56.232;43.854;2022-09-09T02:42:48;101221.31;;;6.59;79.34
73453;BME280;61687;56.232;43.854;2022-09-09T02:45:19;101222.13;;;6.60;79.30
73453;BME280;61687;56.232;43.854;2022-09-09T02:50:35;101232.53;;;6.58;79.30
73453;BME280;61687;56.232;43.854;2022-09-09T02:53:31;101241.00;;;6.56;79.35
73453;BME280;61687;56.232;43.854;2022-09-09T02:56:07;101241.47;;;6.58;79.32
73453;BME280;61687;56.232;43.854;2022-09-09T02:58:38;101248.38;;;6.65;79.17
73453;BME280;61687;56.232;43.854;2022-09-09T03:01:06;101252.56;;;6.62;78.83
73453;BME280;61687;56.232;43.854;2022-09-09T03:03:32;101251.06;;;6.56;78.87
73453;BME280;61687;56.232;43.854;2022-09-09T03:06:01;101247.53;;;6.47;78.88
73453;BME280;61687;56.232;43.854;2022-09-09T03:08:27;101249.44;;;6.37;79.01
73453;BME280;61687;56.232;43.854;2022-09-09T03:10:55;101246.06;;;6.32;79.17
73453;BME280;61687;56.232;43.854;2022-09-09T03:13:23;101255.34;;;6.30;79.25
73453;BME280;61687;56.232;43.854;2022-09-09T03:15:49;101261.09;;;6.29;79.29
73453;BME280;61687;56.232;43.854;2022-09-09T03:18:18;101257.88;;;6.27;79.23
73453;BME280;61687;56.232;43.854;2022-09-09T03:20:48;101254.97;;;6.23;79.44
73453;BME280;61687;56.232;43.854;2022-09-09T03:23:15;101263.03;;;6.28;79.30
73453;BME280;61687;56.232;43.854;2022-09-09T03:25:47;101269.25;;;6.29;79.14
73453;BME280;61687;56.232;43.854;2022-09-09T03:28:15;101273.44;;;6.26;78.94
73453;BME280;61687;56.232;43.854;2022-09-09T03:30:42;101273.91;;;6.28;78.88
73453;BME280;61687;56.232;43.854;2022-09-09T03:33:08;101273.13;;;6.37;78.61
73453;BME280;61687;56.232;43.854;2022-09-09T03:35:34;101276.56;;;6.51;78.58
73453;BME280;61687;56.232;43.854;2022-09-09T03:38:01;101277.72;;;6.59;78.03
73453;BME280;61687;56.232;43.854;2022-09-09T03:40:29;101282.81;;;6.61;77.83
73453;BME280;61687;56.232;43.854;2022-09-09T03:42:56;101287.00;;;6.58;77.53
73453;BME280;61687;56.232;43.854;2022-09-09T03:45:24;101287.94;;;6.53;77.54
73453;BME280;61687;56.232;43.854;2022-09-09T03:47:50;101289.19;;;6.47;77.32
73453;BME280;61687;56.232;43.854;2022-09-09T03:50:16;101295.13;;;6.49;77.60
73453;BME280;61687;56.232;43.854;2022-09-09T03:52:46;101302.00;;;6.47;77.52
73453;BME280;61687;56.232;43.854;2022-09-09T03:55:20;101301.50;;;6.44;77.47
73453;BME280;61687;56.232;43.854;2022-09-09T03:57:46;101301.50;;;6.44;77.42
73453;BME280;61687;56.232;43.854;2022-09-09T04:00:12;101299.25;;;6.38;77.22
73453;BME280;61687;56.232;43.854;2022-09-09T04:02:49;101294.72;;;6.33;77.25
73453;BME280;61687;56.232;43.854;2022-09-09T04:05:16;101300.31;;;6.28;77.13
73453;BME280;61687;56.232;43.854;2022-09-09T04:07:44;101305.13;;;6.31;77.19
73453;BME280;61687;56.232;43.854;2022-09-09T04:10:11;101306.47;;;6.42;77.09
73453;BME280;61687;56.232;43.854;2022-09-09T04:12:39;101304.94;;;6.59;76.60
73453;BME280;61687;56.232;43.854;2022-09-09T04:15:05;101309.63;;;6.76;76.26
73453;BME280;61687;56.232;43.854;2022-09-09T04:17:33;101310.91;;;6.79;75.85
73453;BME280;61687;56.232;43.854;2022-09-09T04:19:59;101313.00;;;6.82;75.59
73453;BME280;61687;56.232;43.854;2022-09-09T04:22:26;101319.22;;;6.73;75.84
73453;BME280;61687;56.232;43.854;2022-09-09T04:24:52;101327.75;;;6.81;75.60
73453;BME280;61687;56.232;43.854;2022-09-09T04:27:19;101326.63;;;6.82;75.52
73453;BME280;61687;56.232;43.854;2022-09-09T04:29:45;101329.97;;;6.79;75.92
73453;BME280;61687;56.232;43.854;2022-09-09T04:32:12;101342.13;;;6.72;75.45
73453;BME280;61687;56.232;43.854;2022-09-09T04:34:39;101339.38;;;6.64;75.50
73453;BME280;61687;56.232;43.854;2022-09-09T04:37:08;101341.63;;;6.62;75.82
73453;BME280;61687;56.232;43.854;2022-09-09T04:39:34;101348.19;;;6.61;75.66
73453;BME280;61687;56.232;43.854;2022-09-09T04:42:00;101353.28;;;6.53;75.28
73453;BME280;61687;56.232;43.854;2022-09-09T04:44:26;101354.03;;;6.45;75.48
73453;BME280;61687;56.232;43.854;2022-09-09T04:46:52;101347.00;;;6.44;75.67
73453;BME280;61687;56.232;43.854;2022-09-09T04:49:18;101353.44;;;6.48;75.97
73453;BME280;61687;56.232;43.854;2022-09-09T04:51:44;101352.81;;;6.51;75.70
73453;BME280;61687;56.232;43.854;2022-09-09T04:54:12;101350.13;;;6.60;75.44
73453;BME280;61687;56.232;43.854;2022-09-09T04:56:39;101353.38;;;6.71;75.28
73453;BME280;61687;56.232;43.854;2022-09-09T04:59:07;101350.03;;;6.83;75.16
73453;BME280;61687;56.232;43.854;2022-09-09T05:01:43;101348.91;;;6.84;74.84
73453;BME280;61687;56.232;43.854;2022-09-09T05:04:10;101354.41;;;6.93;74.73
73453;BME280;61687;56.232;43.854;2022-09-09T05:06:36;101352.00;;;7.00;74.29
73453;BME280;61687;56.232;43.854;2022-09-09T05:09:03;101359.88;;;7.01;73.87
73453;BME280;61687;56.232;43.854;2022-09-09T05:11:31;101368.03;;;7.10;73.77
73453;BME280;61687;56.232;43.854;2022-09-09T05:14:23;101367.44;;;7.22;73.57
73453;BME280;61687;56.232;43.854;2022-09-09T05:16:49;101365.84;;;7.30;73.35
73453;BME280;61687;56.232;43.854;2022-09-09T05:19:16;101358.94;;;7.33;72.78
73453;BME280;61687;56.232;43.854;2022-09-09T05:21:47;101366.50;;;7.36;72.71
73453;BME280;61687;56.232;43.854;2022-09-09T05:24:16;101367.16;;;7.41;72.31
73453;BME280;61687;56.232;43.854;2022-09-09T05:26:44;101365.06;;;7.47;72.41
73453;BME280;61687;56.232;43.854;2022-09-09T05:29:10;101368.75;;;7.51;71.80
73453;BME280;61687;56.232;43.854;2022-09-09T05:31:36;101371.97;;;7.53;71.72
73453;BME280;61687;56.232;43.854;2022-09-09T05:34:07;101368.94;;;7.55;71.45
73453;BME280;61687;56.232;43.854;2022-09-09T05:36:34;101374.22;;;7.60;71.11
73453;BME280;61687;56.232;43.854;2022-09-09T05:39:01;101373.41;;;7.68;71.42
73453;BME280;61687;56.232;43.854;2022-09-09T05:41:28;101371.03;;;7.76;69.89
73453;BME280;61687;56.232;43.854;2022-09-09T05:43:57;101372.09;;;7.83;70.58
73453;BME280;61687;56.232;43.854;2022-09-09T05:46:25;101378.03;;;7.94;70.19
73453;BME280;61687;56.232;43.854;2022-09-09T05:48:53;101379.50;;;8.00;69.46
73453;BME280;61687;56.232;43.854;2022-09-09T05:51:26;101379.31;;;8.06;69.04
73453;BME280;61687;56.232;43.854;2022-09-09T05:53:56;101381.22;;;8.14;68.71
73453;BME280;61687;56.232;43.854;2022-09-09T05:56:28;101382.66;;;8.29;68.63
73453;BME280;61687;56.232;43.854;2022-09-09T05:58:56;101385.34;;;8.38;68.84
73453;BME280;61687;56.232;43.854;2022-09-09T06:01:31;101389.53;;;8.44;68.08
73453;BME280;61687;56.232;43.854;2022-09-09T06:03:58;101388.88;;;8.47;67.96
73453;BME280;61687;56.232;43.854;2022-09-09T06:06:26;101394.00;;;8.57;67.60
73453;BME280;61687;56.232;43.854;2022-09-09T06:08:56;101396.41;;;8.59;66.47
73453;BME280;61687;56.232;43.854;2022-09-09T06:11:32;101393.97;;;8.66;66.60
73453;BME280;61687;56.232;43.854;2022-09-09T06:14:02;101402.31;;;8.70;66.12
73453;BME280;61687;56.232;43.854;2022-09-09T06:16:31;101395.53;;;8.76;66.65
73453;BME280;61687;56.232;43.854;2022-09-09T06:19:01;101408.06;;;8.77;65.71
73453;BME280;61687;56.232;43.854;2022-09-09T06:21:32;101402.16;;;8.66;64.74
73453;BME280;61687;56.232;43.854;2022-09-09T06:24:00;101411.47;;;8.74;65.51
73453;BME280;61687;56.232;43.854;2022-09-09T06:26:29;101402.09;;;8.84;65.45
73453;BME280;61687;56.232;43.854;2022-09-09T06:28:57;101406.03;;;9.04;65.09
73453;BME280;61687;56.232;43.854;2022-09-09T06:31:26;101416.41;;;9.20;64.78
73453;BME280;61687;56.232;43.854;2022-09-09T06:33:53;101409.41;;;9.31;63.90
73453;BME280;61687;56.232;43.854;2022-09-09T06:36:34;101406.75;;;9.43;63.23
73453;BME280;61687;56.232;43.854;2022-09-09T06:39:00;101413.31;;;9.51;62.87
73453;BME280;61687;56.232;43.854;2022-09-09T06:41:29;101416.78;;;9.61;62.94
73453;BME280;61687;56.232;43.854;2022-09-09T06:43:56;101418.84;;;9.85;62.97
73453;BME280;61687;56.232;43.854;2022-09-09T06:46:31;101408.66;;;10.07;61.59
73453;BME280;61687;56.232;43.854;2022-09-09T06:49:00;101408.50;;;10.24;59.71
73453;BME280;61687;56.232;43.854;2022-09-09T06:51:31;101411.03;;;10.29;58.92
73453;BME280;61687;56.232;43.854;2022-09-09T06:53:59;101412.69;;;10.43;59.87
73453;BME280;61687;56.232;43.854;2022-09-09T06:58:59;101415.56;;;10.59;58.29
73453;BME280;61687;56.232;43.854;2022-09-09T07:01:30;101419.72;;;10.65;57.13
73453;BME280;61687;56.232;43.854;2022-09-09T07:04:01;101425.06;;;10.62;56.61
73453;BME280;61687;56.232;43.854;2022-09-09T07:06:32;101433.06;;;10.67;56.09
73453;BME280;61687;56.232;43.854;2022-09-09T07:09:03;101434.66;;;10.68;56.61
73453;BME280;61687;56.232;43.854;2022-09-09T07:11:33;101426.78;;;10.66;55.90
73453;BME280;61687;56.232;43.854;2022-09-09T07:14:00;101425.28;;;10.69;55.68
73453;BME280;61687;56.232;43.854;2022-09-09T07:16:28;101426.91;;;10.70;55.29
73453;BME280;61687;56.232;43.854;2022-09-09T07:18:56;101437.31;;;10.64;55.48
73453;BME280;61687;56.232;43.854;2022-09-09T07:21:25;101437.41;;;10.68;54.99
73453;BME280;61687;56.232;43.854;2022-09-09T07:23:53;101436.53;;;10.76;56.07
73453;BME280;61687;56.232;43.854;2022-09-09T07:26:21;101436.63;;;10.80;55.31
73453;BME280;61687;56.232;43.854;2022-09-09T07:28:48;101436.06;;;10.74;55.26
73453;BME280;61687;56.232;43.854;2022-09-09T07:31:18;101439.47;;;10.71;53.63
73453;BME280;61687;56.232;43.854;2022-09-09T07:33:47;101441.66;;;10.65;53.72
73453;BME280;61687;56.232;43.854;2022-09-09T07:38:43;101445.16;;;10.66;54.11
73453;BME280;61687;56.232;43.854;2022-09-09T07:41:19;101443.97;;;10.88;53.68
73453;BME280;61687;56.232;43.854;2022-09-09T07:43:47;101441.34;;;11.04;53.11
73453;BME280;61687;56.232;43.854;2022-09-09T07:46:15;101443.16;;;11.25;54.53
73453;BME280;61687;56.232;43.854;2022-09-09T07:48:48;101451.50;;;11.28;52.16
73453;BME280;61687;56.232;43.854;2022-09-09T07:51:24;101449.09;;;11.27;51.70
73453;BME280;61687;56.232;43.854;2022-09-09T07:53:53;101457.00;;;11.28;51.22
73453;BME280;61687;56.232;43.854;2022-09-09T07:56:19;101462.03;;;11.26;51.53
73453;BME280;61687;56.232;43.854;2022-09-09T07:58:50;101449.56;;;11.29;51.43
73453;BME280;61687;56.232;43.854;2022-09-09T08:01:19;101459.63;;;11.37;51.15
73453;BME280;61687;56.232;43.854;2022-09-09T08:03:46;101465.69;;;11.30;51.04
73453;BME280;61687;56.232;43.854;2022-09-09T08:06:13;101456.31;;;11.31;51.12
73453;BME280;61687;56.232;43.854;2022-09-09T08:08:40;101456.41;;;11.35;51.50
73453;BME280;61687;56.232;43.854;2022-09-09T08:11:11;101463.28;;;11.41;50.89
73453;BME280;61687;56.232;43.854;2022-09-09T08:13:38;101477.56;;;11.47;51.29
73453;BME280;61687;56.232;43.854;2022-09-09T08:18:36;101470.78;;;11.69;50.63
73453;BME280;61687;56.232;43.854;2022-09-09T08:21:13;101466.44;;;11.68;49.94
73453;BME280;61687;56.232;43.854;2022-09-09T08:23:41;101469.66;;;11.58;49.43
73453;BME280;61687;56.232;43.854;2022-09-09T08:26:19;101465.78;;;11.59;51.23
73453;BME280;61687;56.232;43.854;2022-09-09T08:28:50;101471.22;;;11.84;51.34
73453;BME280;61687;56.232;43.854;2022-09-09T08:31:22;101469.56;;;12.08;50.83
73453;BME280;61687;56.232;43.854;2022-09-09T08:33:48;101477.81;;;12.08;49.28
73453;BME280;61687;56.232;43.854;2022-09-09T08:36:17;101477.91;;;11.99;48.84
73453;BME280;61687;56.232;43.854;2022-09-09T08:38:46;101483.31;;;12.08;49.73
73453;BME280;61687;56.232;43.854;2022-09-09T08:46:38;101480.03;;;12.18;47.60
73453;BME280;61687;56.232;43.854;2022-09-09T08:52:16;101488.22;;;12.02;48.09
73453;BME280;61687;56.232;43.854;2022-09-09T08:54:45;101500.72;;;11.87;48.18
73453;BME280;61687;56.232;43.854;2022-09-09T08:57:20;101487.03;;;11.62;48.96
73453;BME280;61687;56.232;43.854;2022-09-09T08:59:49;101486.84;;;11.42;49.39
73453;BME280;61687;56.232;43.854;2022-09-09T09:02:54;101488.44;;;11.19;49.73
73453;BME280;61687;56.232;43.854;2022-09-09T09:05:35;101490.63;;;11.25;50.06
73453;BME280;61687;56.232;43.854;2022-09-09T09:10:51;101500.03;;;12.02;48.24
73453;BME280;61687;56.232;43.854;2022-09-09T09:13:33;101500.66;;;12.24;48.87
73453;BME280;61687;56.232;43.854;2022-09-09T09:18:53;101509.34;;;12.26;47.86
73453;BME280;61687;56.232;43.854;2022-09-09T09:24:18;101511.34;;;12.13;46.55
73453;BME280;61687;56.232;43.854;2022-09-09T09:26:46;101507.47;;;12.02;47.25
73453;BME280;61687;56.232;43.854;2022-09-09T09:29:15;101515.25;;;11.87;47.05
73453;BME280;61687;56.232;43.854;2022-09-09T09:31:51;101504.41;;;11.79;47.39
73453;BME280;61687;56.232;43.854;2022-09-09T09:34:22;101506.69;;;12.01;48.05
73453;BME280;61687;56.232;43.854;2022-09-09T09:36:59;101501.56;;;12.16;47.32
73453;BME280;61687;56.232;43.854;2022-09-09T09:39:33;101493.78;;;12.18;47.77
73453;BME280;61687;56.232;43.854;2022-09-09T09:42:12;101508.38;;;12.06;47.59
73453;BME280;61687;56.232;43.854;2022-09-09T09:44:43;101496.13;;;12.04;47.35
73453;BME280;61687;56.232;43.854;2022-09-09T09:47:20;101497.16;;;12.11;47.31
73453;BME280;61687;56.232;43.854;2022-09-09T09:49:59;101506.47;;;12.23;47.61
73453;BME280;61687;56.232;43.854;2022-09-09T09:52:32;101513.94;;;12.22;46.59
73453;BME280;61687;56.232;43.854;2022-09-09T09:55:03;101509.72;;;12.00;46.45
73453;BME280;61687;56.232;43.854;2022-09-09T09:57:33;101508.38;;;11.94;46.96
73453;BME280;61687;56.232;43.854;2022-09-09T10:02:42;101508.22;;;12.15;47.43
73453;BME280;61687;56.232;43.854;2022-09-09T10:05:27;101518.63;;;12.22;47.89
73453;BME280;61687;56.232;43.854;2022-09-09T10:08:04;101514.91;;;12.30;48.03
73453;BME280;61687;56.232;43.854;2022-09-09T10:19:02;101525.13;;;11.76;49.30
73453;BME280;61687;56.232;43.854;2022-09-09T10:21:43;101529.78;;;11.88;49.45
73453;BME280;61687;56.232;43.854;2022-09-09T10:27:19;101531.63;;;11.84;50.02
73453;BME280;61687;56.232;43.854;2022-09-09T10:29:53;101534.16;;;11.77;49.62
73453;BME280;61687;56.232;43.854;2022-09-09T10:40:28;101535.88;;;11.81;49.94
73453;BME280;61687;56.232;43.854;2022-09-09T10:46:17;101530.72;;;11.55;49.80
73453;BME280;61687;56.232;43.854;2022-09-09T10:49:10;101525.50;;;11.37;50.40
73453;BME280;61687;56.232;43.854;2022-09-09T10:57:47;101523.97;;;12.59;49.11
73453;BME280;61687;56.232;43.854;2022-09-09T11:02:43;101525.00;;;12.83;48.56
73453;BME280;61687;56.232;43.854;2022-09-09T11:07:55;101532.41;;;12.38;50.63
73453;BME280;61687;56.232;43.854;2022-09-09T11:10:39;101535.69;;;12.27;51.47
73453;BME280;61687;56.232;43.854;2022-09-09T11:13:46;101524.44;;;12.33;51.83
73453;BME280;61687;56.232;43.854;2022-09-09T11:16:56;101528.75;;;12.46;51.19
73453;BME280;61687;56.232;43.854;2022-09-09T11:21:50;101531.53;;;12.62;50.46
73453;BME280;61687;56.232;43.854;2022-09-09T11:40:31;101534.00;;;13.28;48.64
73453;BME280;61687;56.232;43.854;2022-09-09T11:43:10;101532.66;;;13.38;48.30
73453;BME280;61687;56.232;43.854;2022-09-09T11:45:40;101527.59;;;13.24;48.61
73453;BME280;61687;56.232;43.854;2022-09-09T11:51:42;101529.13;;;12.60;51.16
73453;BME280;61687;56.232;43.854;2022-09-09T11:53:51;101525.44;;;12.40;51.54
73453;BME280;61687;56.232;43.854;2022-09-09T11:56:41;101534.09;;;12.14;51.76
73453;BME280;61687;56.232;43.854;2022-09-09T11:59:23;101537.34;;;12.04;51.31
73453;BME280;61687;56.232;43.854;2022-09-09T12:01:56;101537.00;;;11.93;52.07
73453;BME280;61687;56.232;43.854;2022-09-09T12:10:04;101530.34;;;11.94;51.28
73453;BME280;61687;56.232;43.854;2022-09-09T12:12:33;101528.22;;;12.28;50.95
73453;BME280;61687;56.232;43.854;2022-09-09T12:15:18;101535.28;;;12.86;50.45
73453;BME280;61687;56.232;43.854;2022-09-09T12:33:45;101532.91;;;13.00;50.40
73453;BME280;61687;56.232;43.854;2022-09-09T12:36:19;101529.88;;;12.90;49.71
73453;BME280;61687;56.232;43.854;2022-09-09T12:38:46;101535.13;;;12.95;49.32
73453;BME280;61687;56.232;43.854;2022-09-09T12:41:26;101527.31;;;12.97;48.18
73453;BME280;61687;56.232;43.854;2022-09-09T12:44:12;101543.84;;;12.68;49.65
73453;BME280;61687;56.232;43.854;2022-09-09T12:46:43;101544.19;;;12.22;51.22
73453;BME280;61687;56.232;43.854;2022-09-09T12:51:56;101548.13;;;11.84;54.32
73453;BME280;61687;56.232;43.854;2022-09-09T12:54:23;101556.94;;;11.77;55.14
73453;BME280;61687;56.232;43.854;2022-09-09T12:56:49;101555.53;;;11.83;55.90
73453;BME280;61687;56.232;43.854;2022-09-09T12:59:36;101552.34;;;11.94;55.81
73453;BME280;61687;56.232;43.854;2022-09-09T13:02:21;101548.06;;;12.21;55.44
73453;BME280;61687;56.232;43.854;2022-09-09T13:04:48;101547.88;;;12.71;54.17
73453;BME280;61687;56.232;43.854;2022-09-09T13:07:17;101544.94;;;13.92;50.84
73453;BME280;61687;56.232;43.854;2022-09-09T13:09:47;101537.75;;;16.13;46.48
73453;BME280;61687;56.232;43.854;2022-09-09T13:12:17;101532.47;;;17.70;42.38
73453;BME280;61687;56.232;43.854;2022-09-09T13:14:46;101539.50;;;18.27;40.23
73453;BME280;61687;56.232;43.854;2022-09-09T13:17:22;101533.69;;;18.69;39.06
73453;BME280;61687;56.232;43.854;2022-09-09T13:19:50;101530.13;;;19.59;38.05
73453;BME280;61687;56.232;43.854;2022-09-09T13:22:38;101533.78;;;20.49;37.05
73453;BME280;61687;56.232;43.854;2022-09-09T13:27:39;101542.47;;;19.29;36.97
73453;BME280;61687;56.232;43.854;2022-09-09T13:30:30;101541.28;;;19.41;36.50
73453;BME280;61687;56.232;43.854;2022-09-09T13:35:30;101540.19;;;20.42;35.39
73453;BME280;61687;56.232;43.854;2022-09-09T13:37:56;101540.03;;;20.71;34.76
73453;BME280;61687;56.232;43.854;2022-09-09T13:40:24;101530.88;;;20.70;34.50
73453;BME280;61687;56.232;43.854;2022-09-09T13:42:56;101530.00;;;20.84;33.92
73453;BME280;61687;56.232;43.854;2022-09-09T13:45:24;101536.59;;;20.45;33.94
73453;BME280;61687;56.232;43.854;2022-09-09T13:47:53;101528.44;;;20.09;34.76
73453;BME280;61687;56.232;43.854;2022-09-09T13:50:26;101528.41;;;20.12;34.45
73453;BME280;61687;56.232;43.854;2022-09-09T13:52:57;101523.59;;;20.20;34.65
73453;BME280;61687;56.232;43.854;2022-09-09T13:55:26;101515.47;;;19.33;36.36
73453;BME280;61687;56.232;43.854;2022-09-09T13:57:55;101524.13;;;18.55;37.59
73453;BME280;61687;56.232;43.854;2022-09-09T14:00:21;101526.41;;;17.50;39.87
73453;BME280;61687;56.232;43.854;2022-09-09T14:02:48;101530.47;;;16.73;41.68
73453;BME280;61687;56.232;43.854;2022-09-09T14:05:15;101528.88;;;16.72;41.70
73453;BME280;61687;56.232;43.854;2022-09-09T14:07:42;101531.94;;;16.60;41.81
73453;BME280;61687;56.232;43.854;2022-09-09T14:10:09;101534.38;;;17.59;39.98
73453;BME280;61687;56.232;43.854;2022-09-09T14:12:36;101533.28;;;16.39;42.67
73453;BME280;61687;56.232;43.854;2022-09-09T14:15:03;101535.88;;;16.25;42.55
73453;BME280;61687;56.232;43.854;2022-09-09T14:17:29;101531.34;;;17.19;40.38
73453;BME280;61687;56.232;43.854;2022-09-09T14:19:55;101533.28;;;17.71;39.45
73453;BME280;61687;56.232;43.854;2022-09-09T14:22:22;101533.00;;;17.94;38.81
73453;BME280;61687;56.232;43.854;2022-09-09T14:24:48;101536.25;;;18.11;38.58
73453;BME280;61687;56.232;43.854;2022-09-09T14:27:15;101532.66;;;18.03;38.68
73453;BME280;61687;56.232;43.854;2022-09-09T14:29:41;101542.50;;;16.88;40.90
73453;BME280;61687;56.232;43.854;2022-09-09T14:32:09;101535.72;;;15.29;43.57
73453;BME280;61687;56.232;43.854;2022-09-09T14:34:34;101541.44;;;15.17;43.98
73453;BME280;61687;56.232;43.854;2022-09-09T14:37:00;101542.78;;;14.21;45.96
73453;BME280;61687;56.232;43.854;2022-09-09T14:39:26;101542.44;;;13.51;47.56
73453;BME280;61687;56.232;43.854;2022-09-09T14:41:52;101546.69;;;13.00;48.92
73453;BME280;61687;56.232;43.854;2022-09-09T14:44:18;101546.88;;;12.63;49.89
73453;BME280;61687;56.232;43.854;2022-09-09T14:46:44;101544.03;;;12.31;50.74
73453;BME280;61687;56.232;43.854;2022-09-09T14:49:10;101545.22;;;12.18;51.14
73453;BME280;61687;56.232;43.854;2022-09-09T14:51:36;101538.94;;;12.05;51.22
73453;BME280;61687;56.232;43.854;2022-09-09T14:54:02;101551.53;;;11.93;51.26
73453;BME280;61687;56.232;43.854;2022-09-09T14:56:32;101550.41;;;11.82;51.52
73453;BME280;61687;56.232;43.854;2022-09-09T14:59:00;101549.84;;;11.64;51.57
73453;BME280;61687;56.232;43.854;2022-09-09T15:01:26;101551.78;;;11.51;52.20
73453;BME280;61687;56.232;43.854;2022-09-09T15:03:54;101548.38;;;11.41;52.06
73453;BME280;61687;56.232;43.854;2022-09-09T15:06:22;101549.84;;;11.26;52.37
73453;BME280;61687;56.232;43.854;2022-09-09T15:08:50;101549.00;;;11.13;52.99
73453;BME280;61687;56.232;43.854;2022-09-09T15:11:16;101553.00;;;11.04;53.77
73453;BME280;61687;56.232;43.854;2022-09-09T15:13:43;101563.94;;;10.91;54.23
73453;BME280;61687;56.232;43.854;2022-09-09T15:16:15;101561.97;;;10.79;54.33
73453;BME280;61687;56.232;43.854;2022-09-09T15:18:43;101562.38;;;10.69;54.94
73453;BME280;61687;56.232;43.854;2022-09-09T15:21:11;101562.66;;;10.55;55.43
73453;BME280;61687;56.232;43.854;2022-09-09T15:23:38;101565.47;;;10.46;55.85
73453;BME280;61687;56.232;43.854;2022-09-09T15:26:04;101565.19;;;10.39;56.21